sensor_id;sensor_type;location;lat;lon;timestamp;P1;durP1;ratioP1;P2;durP2;ratioP2
5452;SDS011;2749;53.576;9.822;2023-11-21T00:01:01;36.60;;;19.07;;
5452;SDS011;2749;53.576;9.822;2023-11-21T00:03:28;37.27;;;17.10;;
5452;SDS011;2749;53.576;9.822;2023-11-21T00:05:54;42.70;;;18.27;;
5452;SDS011;2749;53.576;9.822;2023-11-21T00:08:20;40.80;;;20.60;;
5452;SDS011;2749;53.576;9.822;2023-11-21T00:10:46;34.70;;;18.30;;
5452;SDS011;2749;53.576;9.822;2023-11-21T00:13:13;43.83;;;21.43;;
5452;SDS011;2749;53.576;9.822;2023-11-21T00:15:39;42.70;;;21.10;;
5452;SDS011;2749;53.576;9.822;2023-11-21T00:18:05;43.53;;;19.20;;
5452;SDS011;2749;53.576;9.822;2023-11-21T00:20:31;34.17;;;19.43;;
5452;SDS011;2749;53.576;9.822;2023-11-21T00:22:57;38.00;;;19.10;;
5452;SDS011;2749;53.576;9.822;2023-11-21T00:25:24;41.83;;;21.70;;
5452;SDS011;2749;53.576;9.822;2023-11-21T00:27:50;39.13;;;19.40;;
5452;SDS011;2749;53.576;9.822;2023-11-21T00:30:16;40.93;;;20.57;;
5452;SDS011;2749;53.576;9.822;2023-11-21T00:32:42;32.93;;;18.20;;
5452;SDS011;2749;53.576;9.822;2023-11-21T00:35:08;30.83;;;18.97;;
5452;SDS011;2749;53.576;9.822;2023-11-21T00:37:35;31.93;;;17.80;;
5452;SDS011;2749;53.576;9.822;2023-11-21T00:40:01;32.27;;;16.80;;
5452;SDS011;2749;53.576;9.822;2023-11-21T00:42:30;38.03;;;15.93;;
5452;SDS011;2749;53.576;9.822;2023-11-21T00:44:58;28.33;;;17.90;;
5452;SDS011;2749;53.576;9.822;2023-11-21T00:47:24;32.77;;;17.20;;
5452;SDS011;2749;53.576;9.822;2023-11-21T00:49:50;32.63;;;19.60;;
5452;SDS011;2749;53.576;9.822;2023-11-21T00:52:16;33.90;;;16.90;;
5452;SDS011;2749;53.576;9.822;2023-11-21T00:54:42;38.43;;;21.30;;
5452;SDS011;2749;53.576;9.822;2023-11-21T00:57:08;41.47;;;19.50;;
5452;SDS011;2749;53.576;9.822;2023-11-21T00:59:36;32.87;;;19.17;;
5452;SDS011;2749;53.576;9.822;2023-11-21T01:02:02;31.83;;;17.87;;
5452;SDS011;2749;53.576;9.822;2023-11-21T01:04:30;31.13;;;17.40;;
5452;SDS011;2749;53.576;9.822;2023-11-21T01:06:57;34.20;;;19.10;;
5452;SDS011;2749;53.576;9.822;2023-11-21T01:09:23;35.87;;;19.60;;
5452;SDS011;2749;53.576;9.822;2023-11-21T01:11:49;35.27;;;21.73;;
5452;SDS011;2749;53.576;9.822;2023-11-21T01:14:16;35.60;;;20.97;;
5452;SDS011;2749;53.576;9.822;2023-11-21T01:16:42;32.30;;;20.70;;
5452;SDS011;2749;53.576;9.822;2023-11-21T01:19:08;30.90;;;19.83;;
5452;SDS011;2749;53.576;9.822;2023-11-21T01:21:34;36.97;;;23.00;;
5452;SDS011;2749;53.576;9.822;2023-11-21T01:24:00;35.10;;;21.73;;
5452;SDS011;2749;53.576;9.822;2023-11-21T01:26:27;32.37;;;18.70;;
5452;SDS011;2749;53.576;9.822;2023-11-21T01:28:53;31.80;;;20.87;;
5452;SDS011;2749;53.576;9.822;2023-11-21T01:31:19;31.70;;;18.60;;
5452;SDS011;2749;53.576;9.822;2023-11-21T01:33:45;26.50;;;15.83;;
5452;SDS011;2749;53.576;9.822;2023-11-21T01:36:11;26.90;;;16.60;;
5452;SDS011;2749;53.576;9.822;2023-11-21T01:38:37;32.10;;;17.93;;
5452;SDS011;2749;53.576;9.822;2023-11-21T01:41:03;30.80;;;15.70;;
5452;SDS011;2749;53.576;9.822;2023-11-21T01:43:31;28.20;;;16.67;;
5452;SDS011;2749;53.576;9.822;2023-11-21T01:45:57;24.90;;;16.33;;
5452;SDS011;2749;53.576;9.822;2023-11-21T01:48:23;31.47;;;17.70;;
5452;SDS011;2749;53.576;9.822;2023-11-21T01:50:50;23.33;;;15.93;;
5452;SDS011;2749;53.576;9.822;2023-11-21T01:53:16;26.30;;;16.60;;
5452;SDS011;2749;53.576;9.822;2023-11-21T01:55:43;35.80;;;18.80;;
5452;SDS011;2749;53.576;9.822;2023-11-21T01:58:10;26.17;;;17.20;;
5452;SDS011;2749;53.576;9.822;2023-11-21T02:00:37;31.97;;;18.33;;
5452;SDS011;2749;53.576;9.822;2023-11-21T02:03:03;27.40;;;14.77;;
5452;SDS011;2749;53.576;9.822;2023-11-21T02:05:29;25.70;;;16.00;;
5452;SDS011;2749;53.576;9.822;2023-11-21T02:07:55;24.83;;;15.07;;
5452;SDS011;2749;53.576;9.822;2023-11-21T02:10:21;23.77;;;14.97;;
5452;SDS011;2749;53.576;9.822;2023-11-21T02:12:48;19.60;;;13.90;;
5452;SDS011;2749;53.576;9.822;2023-11-21T02:15:17;22.60;;;15.80;;
5452;SDS011;2749;53.576;9.822;2023-11-21T02:17:46;19.40;;;13.50;;
5452;SDS011;2749;53.576;9.822;2023-11-21T02:20:16;22.67;;;14.20;;
5452;SDS011;2749;53.576;9.822;2023-11-21T02:22:42;18.80;;;13.57;;
5452;SDS011;2749;53.576;9.822;2023-11-21T02:25:08;19.17;;;13.17;;
5452;SDS011;2749;53.576;9.822;2023-11-21T02:27:34;18.60;;;12.60;;
5452;SDS011;2749;53.576;9.822;2023-11-21T02:30:01;14.43;;;11.13;;
5452;SDS011;2749;53.576;9.822;2023-11-21T02:32:29;15.37;;;11.83;;
5452;SDS011;2749;53.576;9.822;2023-11-21T02:34:56;18.70;;;11.67;;
5452;SDS011;2749;53.576;9.822;2023-11-21T02:37:25;16.07;;;11.20;;
5452;SDS011;2749;53.576;9.822;2023-11-21T02:39:51;17.17;;;11.93;;
5452;SDS011;2749;53.576;9.822;2023-11-21T02:42:17;15.93;;;10.83;;
5452;SDS011;2749;53.576;9.822;2023-11-21T02:44:44;15.13;;;10.20;;
5452;SDS011;2749;53.576;9.822;2023-11-21T02:47:10;14.07;;;10.47;;
5452;SDS011;2749;53.576;9.822;2023-11-21T02:49:35;15.50;;;11.23;;
5452;SDS011;2749;53.576;9.822;2023-11-21T02:52:01;15.67;;;10.60;;
5452;SDS011;2749;53.576;9.822;2023-11-21T02:54:28;15.20;;;9.47;;
5452;SDS011;2749;53.576;9.822;2023-11-21T02:56:54;13.10;;;9.20;;
5452;SDS011;2749;53.576;9.822;2023-11-21T02:59:20;14.63;;;10.00;;
5452;SDS011;2749;53.576;9.822;2023-11-21T03:01:46;13.40;;;9.83;;
5452;SDS011;2749;53.576;9.822;2023-11-21T03:04:12;15.30;;;8.50;;
5452;SDS011;2749;53.576;9.822;2023-11-21T03:06:43;12.83;;;8.90;;
5452;SDS011;2749;53.576;9.822;2023-11-21T03:09:09;11.07;;;9.00;;
5452;SDS011;2749;53.576;9.822;2023-11-21T03:11:36;11.87;;;8.57;;
5452;SDS011;2749;53.576;9.822;2023-11-21T03:14:02;11.83;;;9.63;;
5452;SDS011;2749;53.576;9.822;2023-11-21T03:16:28;11.20;;;8.33;;
5452;SDS011;2749;53.576;9.822;2023-11-21T03:18:54;12.53;;;9.27;;
5452;SDS011;2749;53.576;9.822;2023-11-21T03:21:20;11.93;;;8.10;;
5452;SDS011;2749;53.576;9.822;2023-11-21T03:23:46;13.27;;;8.70;;
5452;SDS011;2749;53.576;9.822;2023-11-21T03:26:12;11.77;;;8.03;;
5452;SDS011;2749;53.576;9.822;2023-11-21T03:28:38;10.03;;;8.13;;
5452;SDS011;2749;53.576;9.822;2023-11-21T03:31:04;11.97;;;8.80;;
5452;SDS011;2749;53.576;9.822;2023-11-21T03:33:31;9.60;;;7.37;;
5452;SDS011;2749;53.576;9.822;2023-11-21T03:35:57;11.70;;;8.43;;
5452;SDS011;2749;53.576;9.822;2023-11-21T03:38:23;8.27;;;7.13;;
5452;SDS011;2749;53.576;9.822;2023-11-21T03:40:49;11.57;;;9.23;;
5452;SDS011;2749;53.576;9.822;2023-11-21T03:43:15;13.33;;;10.03;;
5452;SDS011;2749;53.576;9.822;2023-11-21T03:45:41;20.00;;;8.40;;
5452;SDS011;2749;53.576;9.822;2023-11-21T03:48:07;11.03;;;8.23;;
5452;SDS011;2749;53.576;9.822;2023-11-21T03:50:33;13.97;;;9.70;;
5452;SDS011;2749;53.576;9.822;2023-11-21T03:52:59;9.53;;;7.40;;
5452;SDS011;2749;53.576;9.822;2023-11-21T03:55:25;12.57;;;9.20;;
5452;SDS011;2749;53.576;9.822;2023-11-21T03:57:52;11.13;;;9.40;;
5452;SDS011;2749;53.576;9.822;2023-11-21T04:00:18;11.27;;;9.40;;
5452;SDS011;2749;53.576;9.822;2023-11-21T04:02:45;13.03;;;9.57;;
5452;SDS011;2749;53.576;9.822;2023-11-21T04:05:11;13.40;;;10.27;;
5452;SDS011;2749;53.576;9.822;2023-11-21T04:07:37;13.90;;;10.80;;
5452;SDS011;2749;53.576;9.822;2023-11-21T04:10:04;11.43;;;9.30;;
5452;SDS011;2749;53.576;9.822;2023-11-21T04:12:31;10.40;;;9.40;;
5452;SDS011;2749;53.576;9.822;2023-11-21T04:14:57;12.07;;;9.10;;
5452;SDS011;2749;53.576;9.822;2023-11-21T04:17:23;12.07;;;9.23;;
5452;SDS011;2749;53.576;9.822;2023-11-21T04:19:49;13.83;;;9.07;;
5452;SDS011;2749;53.576;9.822;2023-11-21T04:22:15;14.53;;;9.10;;
5452;SDS011;2749;53.576;9.822;2023-11-21T04:24:40;10.40;;;8.80;;
5452;SDS011;2749;53.576;9.822;2023-11-21T04:27:06;11.07;;;9.90;;
5452;SDS011;2749;53.576;9.822;2023-11-21T04:29:32;11.67;;;8.67;;
5452;SDS011;2749;53.576;9.822;2023-11-21T04:31:59;12.83;;;9.33;;
5452;SDS011;2749;53.576;9.822;2023-11-21T04:34:25;13.10;;;10.17;;
5452;SDS011;2749;53.576;9.822;2023-11-21T04:36:51;12.13;;;10.43;;
5452;SDS011;2749;53.576;9.822;2023-11-21T04:39:17;16.03;;;9.77;;
5452;SDS011;2749;53.576;9.822;2023-11-21T04:41:44;12.17;;;9.27;;
5452;SDS011;2749;53.576;9.822;2023-11-21T04:44:10;12.87;;;10.00;;
5452;SDS011;2749;53.576;9.822;2023-11-21T04:46:36;14.47;;;10.77;;
5452;SDS011;2749;53.576;9.822;2023-11-21T04:49:02;11.30;;;9.00;;
5452;SDS011;2749;53.576;9.822;2023-11-21T04:51:28;13.67;;;9.07;;
5452;SDS011;2749;53.576;9.822;2023-11-21T04:53:54;12.80;;;10.17;;
5452;SDS011;2749;53.576;9.822;2023-11-21T04:56:20;14.03;;;10.57;;
5452;SDS011;2749;53.576;9.822;2023-11-21T04:58:46;14.87;;;10.40;;
5452;SDS011;2749;53.576;9.822;2023-11-21T05:01:12;15.37;;;11.77;;
5452;SDS011;2749;53.576;9.822;2023-11-21T05:03:38;13.93;;;9.83;;
5452;SDS011;2749;53.576;9.822;2023-11-21T05:06:04;12.73;;;10.20;;
5452;SDS011;2749;53.576;9.822;2023-11-21T05:08:30;12.47;;;9.63;;
5452;SDS011;2749;53.576;9.822;2023-11-21T05:10:56;16.10;;;10.50;;
5452;SDS011;2749;53.576;9.822;2023-11-21T05:13:22;10.50;;;8.97;;
5452;SDS011;2749;53.576;9.822;2023-11-21T05:15:52;10.60;;;8.37;;
5452;SDS011;2749;53.576;9.822;2023-11-21T05:18:18;14.77;;;10.37;;
5452;SDS011;2749;53.576;9.822;2023-11-21T05:20:44;14.30;;;10.17;;
5452;SDS011;2749;53.576;9.822;2023-11-21T05:23:10;10.83;;;8.90;;
5452;SDS011;2749;53.576;9.822;2023-11-21T05:25:36;14.50;;;10.63;;
5452;SDS011;2749;53.576;9.822;2023-11-21T05:28:02;11.60;;;9.40;;
5452;SDS011;2749;53.576;9.822;2023-11-21T05:30:29;12.07;;;9.10;;
5452;SDS011;2749;53.576;9.822;2023-11-21T05:32:54;12.10;;;9.77;;
5452;SDS011;2749;53.576;9.822;2023-11-21T05:35:20;14.10;;;9.33;;
5452;SDS011;2749;53.576;9.822;2023-11-21T05:37:46;12.50;;;9.33;;
5452;SDS011;2749;53.576;9.822;2023-11-21T05:40:12;10.40;;;8.70;;
5452;SDS011;2749;53.576;9.822;2023-11-21T05:42:39;10.30;;;9.23;;
5452;SDS011;2749;53.576;9.822;2023-11-21T05:45:05;13.20;;;9.27;;
5452;SDS011;2749;53.576;9.822;2023-11-21T05:47:39;12.73;;;9.40;;
5452;SDS011;2749;53.576;9.822;2023-11-21T05:50:06;12.80;;;10.20;;
5452;SDS011;2749;53.576;9.822;2023-11-21T05:52:35;13.03;;;10.30;;
5452;SDS011;2749;53.576;9.822;2023-11-21T05:55:01;11.90;;;10.03;;
5452;SDS011;2749;53.576;9.822;2023-11-21T05:57:27;12.17;;;8.73;;
5452;SDS011;2749;53.576;9.822;2023-11-21T05:59:53;11.60;;;8.30;;
5452;SDS011;2749;53.576;9.822;2023-11-21T06:02:19;12.97;;;9.67;;
5452;SDS011;2749;53.576;9.822;2023-11-21T06:04:45;13.03;;;9.80;;
5452;SDS011;2749;53.576;9.822;2023-11-21T06:07:11;14.73;;;9.10;;
5452;SDS011;2749;53.576;9.822;2023-11-21T06:09:37;12.43;;;8.53;;
5452;SDS011;2749;53.576;9.822;2023-11-21T06:12:03;12.50;;;9.30;;
5452;SDS011;2749;53.576;9.822;2023-11-21T06:14:30;18.97;;;9.00;;
5452;SDS011;2749;53.576;9.822;2023-11-21T06:16:58;13.80;;;9.50;;
5452;SDS011;2749;53.576;9.822;2023-11-21T06:19:24;13.17;;;9.73;;
5452;SDS011;2749;53.576;9.822;2023-11-21T06:21:50;9.93;;;8.93;;
5452;SDS011;2749;53.576;9.822;2023-11-21T06:24:16;11.47;;;9.30;;
5452;SDS011;2749;53.576;9.822;2023-11-21T06:26:42;11.70;;;9.60;;
5452;SDS011;2749;53.576;9.822;2023-11-21T06:29:09;10.37;;;9.27;;
5452;SDS011;2749;53.576;9.822;2023-11-21T06:31:36;14.07;;;9.83;;
5452;SDS011;2749;53.576;9.822;2023-11-21T06:34:01;15.07;;;9.97;;
5452;SDS011;2749;53.576;9.822;2023-11-21T06:36:28;10.73;;;8.73;;
5452;SDS011;2749;53.576;9.822;2023-11-21T06:38:54;11.33;;;9.33;;
5452;SDS011;2749;53.576;9.822;2023-11-21T06:41:20;10.30;;;9.13;;
5452;SDS011;2749;53.576;9.822;2023-11-21T06:43:46;10.27;;;9.23;;
5452;SDS011;2749;53.576;9.822;2023-11-21T06:46:12;9.23;;;8.30;;
5452;SDS011;2749;53.576;9.822;2023-11-21T06:48:40;11.90;;;9.30;;
5452;SDS011;2749;53.576;9.822;2023-11-21T06:51:06;13.63;;;10.17;;
5452;SDS011;2749;53.576;9.822;2023-11-21T06:53:32;13.90;;;8.97;;
5452;SDS011;2749;53.576;9.822;2023-11-21T06:55:58;13.13;;;9.77;;
5452;SDS011;2749;53.576;9.822;2023-11-21T06:58:24;9.87;;;8.37;;
5452;SDS011;2749;53.576;9.822;2023-11-21T07:00:50;10.50;;;8.30;;
5452;SDS011;2749;53.576;9.822;2023-11-21T07:03:17;12.73;;;9.33;;
5452;SDS011;2749;53.576;9.822;2023-11-21T07:05:44;13.30;;;9.50;;
5452;SDS011;2749;53.576;9.822;2023-11-21T07:08:10;10.83;;;9.50;;
5452;SDS011;2749;53.576;9.822;2023-11-21T07:10:35;13.40;;;9.47;;
5452;SDS011;2749;53.576;9.822;2023-11-21T07:13:02;11.70;;;9.47;;
5452;SDS011;2749;53.576;9.822;2023-11-21T07:15:28;12.30;;;9.70;;
5452;SDS011;2749;53.576;9.822;2023-11-21T07:17:54;11.30;;;9.33;;
5452;SDS011;2749;53.576;9.822;2023-11-21T07:20:21;13.00;;;9.80;;
5452;SDS011;2749;53.576;9.822;2023-11-21T07:22:47;13.00;;;9.93;;
5452;SDS011;2749;53.576;9.822;2023-11-21T07:25:13;14.60;;;9.43;;
5452;SDS011;2749;53.576;9.822;2023-11-21T07:27:39;13.87;;;9.90;;
5452;SDS011;2749;53.576;9.822;2023-11-21T07:30:05;11.03;;;9.50;;
5452;SDS011;2749;53.576;9.822;2023-11-21T07:32:32;13.23;;;9.40;;
5452;SDS011;2749;53.576;9.822;2023-11-21T07:34:58;13.70;;;9.40;;
5452;SDS011;2749;53.576;9.822;2023-11-21T07:37:26;12.60;;;9.57;;
5452;SDS011;2749;53.576;9.822;2023-11-21T07:39:53;11.93;;;9.53;;
5452;SDS011;2749;53.576;9.822;2023-11-21T07:42:21;13.47;;;10.30;;
5452;SDS011;2749;53.576;9.822;2023-11-21T07:44:47;13.73;;;9.07;;
5452;SDS011;2749;53.576;9.822;2023-11-21T07:47:15;12.80;;;11.10;;
5452;SDS011;2749;53.576;9.822;2023-11-21T07:49:41;14.33;;;10.53;;
5452;SDS011;2749;53.576;9.822;2023-11-21T07:52:09;12.70;;;8.90;;
5452;SDS011;2749;53.576;9.822;2023-11-21T07:54:35;13.00;;;9.13;;
5452;SDS011;2749;53.576;9.822;2023-11-21T07:57:01;10.30;;;8.30;;
5452;SDS011;2749;53.576;9.822;2023-11-21T07:59:29;11.00;;;8.40;;
5452;SDS011;2749;53.576;9.822;2023-11-21T08:01:55;11.20;;;9.27;;
5452;SDS011;2749;53.576;9.822;2023-11-21T08:04:20;11.33;;;9.03;;
5452;SDS011;2749;53.576;9.822;2023-11-21T08:06:47;8.97;;;8.07;;
5452;SDS011;2749;53.576;9.822;2023-11-21T08:09:14;9.23;;;7.60;;
5452;SDS011;2749;53.576;9.822;2023-11-21T08:11:42;11.47;;;9.87;;
5452;SDS011;2749;53.576;9.822;2023-11-21T08:14:08;10.50;;;9.17;;
5452;SDS011;2749;53.576;9.822;2023-11-21T08:16:34;11.90;;;9.40;;
5452;SDS011;2749;53.576;9.822;2023-11-21T08:19:00;11.80;;;7.93;;
5452;SDS011;2749;53.576;9.822;2023-11-21T08:21:26;10.10;;;8.20;;
5452;SDS011;2749;53.576;9.822;2023-11-21T08:23:53;12.23;;;9.83;;
5452;SDS011;2749;53.576;9.822;2023-11-21T08:26:21;10.00;;;8.57;;
5452;SDS011;2749;53.576;9.822;2023-11-21T08:28:47;12.83;;;8.80;;
5452;SDS011;2749;53.576;9.822;2023-11-21T08:31:13;13.30;;;9.10;;
5452;SDS011;2749;53.576;9.822;2023-11-21T08:33:39;10.87;;;9.03;;
5452;SDS011;2749;53.576;9.822;2023-11-21T08:36:08;9.27;;;8.27;;
5452;SDS011;2749;53.576;9.822;2023-11-21T08:38:35;9.20;;;7.67;;
5452;SDS011;2749;53.576;9.822;2023-11-21T08:41:07;13.70;;;8.33;;
5452;SDS011;2749;53.576;9.822;2023-11-21T08:43:36;7.97;;;7.20;;
5452;SDS011;2749;53.576;9.822;2023-11-21T08:46:06;9.87;;;8.83;;
5452;SDS011;2749;53.576;9.822;2023-11-21T08:48:33;10.20;;;7.43;;
5452;SDS011;2749;53.576;9.822;2023-11-21T08:50:59;11.97;;;7.80;;
5452;SDS011;2749;53.576;9.822;2023-11-21T08:53:25;10.40;;;7.20;;
5452;SDS011;2749;53.576;9.822;2023-11-21T08:55:51;9.50;;;7.23;;
5452;SDS011;2749;53.576;9.822;2023-11-21T08:58:17;13.60;;;7.73;;
5452;SDS011;2749;53.576;9.822;2023-11-21T09:00:43;10.30;;;7.27;;
5452;SDS011;2749;53.576;9.822;2023-11-21T09:03:11;9.07;;;7.73;;
5452;SDS011;2749;53.576;9.822;2023-11-21T09:05:40;17.70;;;8.90;;
5452;SDS011;2749;53.576;9.822;2023-11-21T09:08:06;7.80;;;7.00;;
5452;SDS011;2749;53.576;9.822;2023-11-21T09:10:33;8.93;;;7.30;;
5452;SDS011;2749;53.576;9.822;2023-11-21T09:13:00;11.10;;;7.47;;
5452;SDS011;2749;53.576;9.822;2023-11-21T09:15:26;9.53;;;7.23;;
5452;SDS011;2749;53.576;9.822;2023-11-21T09:17:52;8.23;;;6.60;;
5452;SDS011;2749;53.576;9.822;2023-11-21T09:20:18;8.37;;;6.17;;
5452;SDS011;2749;53.576;9.822;2023-11-21T09:22:47;8.73;;;6.33;;
5452;SDS011;2749;53.576;9.822;2023-11-21T09:25:13;7.27;;;6.53;;
5452;SDS011;2749;53.576;9.822;2023-11-21T09:27:39;8.67;;;5.60;;
5452;SDS011;2749;53.576;9.822;2023-11-21T09:30:06;7.57;;;4.87;;
5452;SDS011;2749;53.576;9.822;2023-11-21T09:32:34;4.97;;;4.37;;
5452;SDS011;2749;53.576;9.822;2023-11-21T09:35:02;5.80;;;4.93;;
5452;SDS011;2749;53.576;9.822;2023-11-21T09:37:28;4.40;;;3.80;;
5452;SDS011;2749;53.576;9.822;2023-11-21T09:39:54;4.73;;;4.23;;
5452;SDS011;2749;53.576;9.822;2023-11-21T09:42:23;5.20;;;4.70;;
5452;SDS011;2749;53.576;9.822;2023-11-21T09:44:53;5.03;;;4.53;;
5452;SDS011;2749;53.576;9.822;2023-11-21T09:47:20;5.67;;;3.40;;
5452;SDS011;2749;53.576;9.822;2023-11-21T09:49:47;5.10;;;4.10;;
5452;SDS011;2749;53.576;9.822;2023-11-21T09:52:27;5.43;;;3.80;;
5452;SDS011;2749;53.576;9.822;2023-11-21T09:54:54;5.50;;;3.90;;
5452;SDS011;2749;53.576;9.822;2023-11-21T09:57:24;5.40;;;3.77;;
5452;SDS011;2749;53.576;9.822;2023-11-21T09:59:54;5.07;;;3.93;;
5452;SDS011;2749;53.576;9.822;2023-11-21T10:02:25;4.30;;;3.93;;
5452;SDS011;2749;53.576;9.822;2023-11-21T10:04:53;9.43;;;3.90;;
5452;SDS011;2749;53.576;9.822;2023-11-21T10:07:20;6.17;;;4.70;;
5452;SDS011;2749;53.576;9.822;2023-11-21T10:09:46;5.00;;;4.20;;
5452;SDS011;2749;53.576;9.822;2023-11-21T10:12:15;6.43;;;3.67;;
5452;SDS011;2749;53.576;9.822;2023-11-21T10:14:42;3.50;;;2.93;;
5452;SDS011;2749;53.576;9.822;2023-11-21T10:17:10;5.43;;;4.93;;
5452;SDS011;2749;53.576;9.822;2023-11-21T10:19:37;5.80;;;4.33;;
5452;SDS011;2749;53.576;9.822;2023-11-21T10:22:04;8.93;;;3.67;;
5452;SDS011;2749;53.576;9.822;2023-11-21T10:24:32;3.50;;;3.20;;
5452;SDS011;2749;53.576;9.822;2023-11-21T10:26:58;3.90;;;3.50;;
5452;SDS011;2749;53.576;9.822;2023-11-21T10:29:24;4.60;;;3.50;;
5452;SDS011;2749;53.576;9.822;2023-11-21T10:31:51;3.43;;;3.10;;
5452;SDS011;2749;53.576;9.822;2023-11-21T10:34:20;7.60;;;3.60;;
5452;SDS011;2749;53.576;9.822;2023-11-21T10:36:46;3.33;;;3.03;;
5452;SDS011;2749;53.576;9.822;2023-11-21T10:39:14;3.80;;;3.27;;
5452;SDS011;2749;53.576;9.822;2023-11-21T10:41:43;4.60;;;3.53;;
5452;SDS011;2749;53.576;9.822;2023-11-21T10:44:10;4.50;;;3.17;;
5452;SDS011;2749;53.576;9.822;2023-11-21T10:46:36;3.43;;;3.13;;
5452;SDS011;2749;53.576;9.822;2023-11-21T10:49:02;4.30;;;2.60;;
5452;SDS011;2749;53.576;9.822;2023-11-21T10:51:28;4.00;;;3.07;;
5452;SDS011;2749;53.576;9.822;2023-11-21T10:53:53;3.43;;;3.13;;
5452;SDS011;2749;53.576;9.822;2023-11-21T10:56:19;3.90;;;3.37;;
5452;SDS011;2749;53.576;9.822;2023-11-21T10:58:48;3.43;;;3.10;;
5452;SDS011;2749;53.576;9.822;2023-11-21T11:01:19;3.43;;;3.13;;
5452;SDS011;2749;53.576;9.822;2023-11-21T11:03:50;4.33;;;2.93;;
5452;SDS011;2749;53.576;9.822;2023-11-21T11:06:19;3.17;;;2.97;;
5452;SDS011;2749;53.576;9.822;2023-11-21T11:08:45;3.30;;;2.77;;
5452;SDS011;2749;53.576;9.822;2023-11-21T11:11:12;3.20;;;3.00;;
5452;SDS011;2749;53.576;9.822;2023-11-21T11:13:39;3.77;;;2.00;;
5452;SDS011;2749;53.576;9.822;2023-11-21T11:16:09;3.33;;;2.73;;
5452;SDS011;2749;53.576;9.822;2023-11-21T11:18:36;3.20;;;2.90;;
5452;SDS011;2749;53.576;9.822;2023-11-21T11:28:55;4.10;;;3.70;;
5452;SDS011;2749;53.576;9.822;2023-11-21T11:36:51;2.87;;;2.57;;
5452;SDS011;2749;53.576;9.822;2023-11-21T11:39:41;3.20;;;2.63;;
5452;SDS011;2749;53.576;9.822;2023-11-21T11:42:08;3.93;;;2.50;;
5452;SDS011;2749;53.576;9.822;2023-11-21T11:47:24;4.23;;;3.50;;
5452;SDS011;2749;53.576;9.822;2023-11-21T11:50:08;5.60;;;3.60;;
5452;SDS011;2749;53.576;9.822;2023-11-21T11:52:48;3.40;;;2.90;;
5452;SDS011;2749;53.576;9.822;2023-11-21T11:55:19;3.17;;;2.90;;
5452;SDS011;2749;53.576;9.822;2023-11-21T11:57:49;2.77;;;2.57;;
5452;SDS011;2749;53.576;9.822;2023-11-21T12:02:46;2.53;;;2.33;;
5452;SDS011;2749;53.576;9.822;2023-11-21T12:05:13;5.67;;;3.53;;
5452;SDS011;2749;53.576;9.822;2023-11-21T12:07:46;2.80;;;2.33;;
5452;SDS011;2749;53.576;9.822;2023-11-21T12:10:16;3.93;;;2.83;;
5452;SDS011;2749;53.576;9.822;2023-11-21T12:12:46;3.63;;;2.83;;
5452;SDS011;2749;53.576;9.822;2023-11-21T12:15:12;4.40;;;2.70;;
5452;SDS011;2749;53.576;9.822;2023-11-21T12:17:39;5.20;;;3.17;;
5452;SDS011;2749;53.576;9.822;2023-11-21T12:20:05;3.87;;;2.53;;
5452;SDS011;2749;53.576;9.822;2023-11-21T12:22:39;4.30;;;3.20;;
5452;SDS011;2749;53.576;9.822;2023-11-21T12:25:06;3.80;;;3.40;;
5452;SDS011;2749;53.576;9.822;2023-11-21T12:27:32;3.00;;;2.70;;
5452;SDS011;2749;53.576;9.822;2023-11-21T12:29:58;3.03;;;2.73;;
5452;SDS011;2749;53.576;9.822;2023-11-21T12:32:24;4.23;;;3.20;;
5452;SDS011;2749;53.576;9.822;2023-11-21T12:34:50;3.90;;;3.37;;
5452;SDS011;2749;53.576;9.822;2023-11-21T12:37:16;4.57;;;3.10;;
5452;SDS011;2749;53.576;9.822;2023-11-21T12:39:42;4.20;;;2.83;;
5452;SDS011;2749;53.576;9.822;2023-11-21T12:42:08;2.70;;;2.50;;
5452;SDS011;2749;53.576;9.822;2023-11-21T12:44:35;6.53;;;2.70;;
5452;SDS011;2749;53.576;9.822;2023-11-21T12:47:05;3.40;;;2.80;;
5452;SDS011;2749;53.576;9.822;2023-11-21T12:49:31;4.10;;;2.80;;
5452;SDS011;2749;53.576;9.822;2023-11-21T12:51:59;3.10;;;2.77;;
5452;SDS011;2749;53.576;9.822;2023-11-21T12:54:24;2.70;;;2.47;;
5452;SDS011;2749;53.576;9.822;2023-11-21T12:56:50;3.07;;;2.77;;
5452;SDS011;2749;53.576;9.822;2023-11-21T12:59:17;3.40;;;2.93;;
5452;SDS011;2749;53.576;9.822;2023-11-21T13:01:43;2.70;;;2.50;;
5452;SDS011;2749;53.576;9.822;2023-11-21T13:04:10;8.63;;;3.27;;
5452;SDS011;2749;53.576;9.822;2023-11-21T13:06:37;3.73;;;3.43;;
5452;SDS011;2749;53.576;9.822;2023-11-21T13:09:07;3.33;;;3.03;;
5452;SDS011;2749;53.576;9.822;2023-11-21T13:11:36;4.50;;;3.43;;
5452;SDS011;2749;53.576;9.822;2023-11-21T13:14:01;6.50;;;3.77;;
5452;SDS011;2749;53.576;9.822;2023-11-21T13:16:28;3.90;;;3.00;;
5452;SDS011;2749;53.576;9.822;2023-11-21T13:18:55;3.90;;;3.60;;
5452;SDS011;2749;53.576;9.822;2023-11-21T13:21:21;5.20;;;3.20;;
5452;SDS011;2749;53.576;9.822;2023-11-21T13:23:47;3.23;;;2.97;;
5452;SDS011;2749;53.576;9.822;2023-11-21T13:26:15;4.20;;;2.60;;
5452;SDS011;2749;53.576;9.822;2023-11-21T13:28:41;4.63;;;3.37;;
5452;SDS011;2749;53.576;9.822;2023-11-21T13:31:11;4.50;;;3.80;;
5452;SDS011;2749;53.576;9.822;2023-11-21T13:33:48;5.70;;;3.93;;
5452;SDS011;2749;53.576;9.822;2023-11-21T13:36:21;4.20;;;3.80;;
5452;SDS011;2749;53.576;9.822;2023-11-21T13:38:49;3.83;;;3.47;;
5452;SDS011;2749;53.576;9.822;2023-11-21T13:41:14;3.87;;;3.57;;
5452;SDS011;2749;53.576;9.822;2023-11-21T13:43:42;3.50;;;3.20;;
5452;SDS011;2749;53.576;9.822;2023-11-21T13:46:15;4.13;;;3.73;;
5452;SDS011;2749;53.576;9.822;2023-11-21T13:48:46;3.27;;;2.97;;
5452;SDS011;2749;53.576;9.822;2023-11-21T13:51:18;3.70;;;3.27;;
5452;SDS011;2749;53.576;9.822;2023-11-21T13:53:48;3.47;;;2.93;;
5452;SDS011;2749;53.576;9.822;2023-11-21T13:56:18;4.80;;;3.10;;
5452;SDS011;2749;53.576;9.822;2023-11-21T13:58:49;3.47;;;3.20;;
5452;SDS011;2749;53.576;9.822;2023-11-21T14:01:19;4.00;;;3.60;;
5452;SDS011;2749;53.576;9.822;2023-11-21T14:03:55;3.40;;;3.10;;
5452;SDS011;2749;53.576;9.822;2023-11-21T14:06:39;3.73;;;3.37;;
5452;SDS011;2749;53.576;9.822;2023-11-21T14:09:12;5.30;;;3.27;;
5452;SDS011;2749;53.576;9.822;2023-11-21T14:11:47;4.23;;;3.20;;
5452;SDS011;2749;53.576;9.822;2023-11-21T14:14:13;5.27;;;3.90;;
5452;SDS011;2749;53.576;9.822;2023-11-21T14:16:39;8.30;;;3.97;;
5452;SDS011;2749;53.576;9.822;2023-11-21T14:19:07;4.70;;;4.10;;
5452;SDS011;2749;53.576;9.822;2023-11-21T14:21:40;6.00;;;3.50;;
5452;SDS011;2749;53.576;9.822;2023-11-21T14:24:08;4.23;;;2.90;;
5452;SDS011;2749;53.576;9.822;2023-11-21T14:26:34;4.40;;;4.00;;
5452;SDS011;2749;53.576;9.822;2023-11-21T14:29:00;3.93;;;3.47;;
5452;SDS011;2749;53.576;9.822;2023-11-21T14:31:27;4.87;;;3.00;;
5452;SDS011;2749;53.576;9.822;2023-11-21T14:33:55;4.20;;;3.80;;
5452;SDS011;2749;53.576;9.822;2023-11-21T14:36:21;3.80;;;2.97;;
5452;SDS011;2749;53.576;9.822;2023-11-21T14:38:48;6.03;;;3.87;;
5452;SDS011;2749;53.576;9.822;2023-11-21T14:41:14;5.27;;;3.80;;
5452;SDS011;2749;53.576;9.822;2023-11-21T14:43:41;5.30;;;3.90;;
5452;SDS011;2749;53.576;9.822;2023-11-21T14:46:08;7.10;;;4.70;;
5452;SDS011;2749;53.576;9.822;2023-11-21T14:48:35;4.80;;;3.40;;
5452;SDS011;2749;53.576;9.822;2023-11-21T14:51:08;6.93;;;3.53;;
5452;SDS011;2749;53.576;9.822;2023-11-21T14:53:53;4.00;;;3.00;;
5452;SDS011;2749;53.576;9.822;2023-11-21T14:56:20;3.20;;;2.90;;
5452;SDS011;2749;53.576;9.822;2023-11-21T14:58:56;2.93;;;2.60;;
5452;SDS011;2749;53.576;9.822;2023-11-21T15:01:22;5.63;;;3.10;;
5452;SDS011;2749;53.576;9.822;2023-11-21T15:04:07;5.13;;;3.57;;
5452;SDS011;2749;53.576;9.822;2023-11-21T15:06:39;5.97;;;3.60;;
5452;SDS011;2749;53.576;9.822;2023-11-21T15:09:07;3.87;;;3.47;;
5452;SDS011;2749;53.576;9.822;2023-11-21T15:11:34;3.53;;;2.97;;
5452;SDS011;2749;53.576;9.822;2023-11-21T15:14:00;2.40;;;2.20;;
5452;SDS011;2749;53.576;9.822;2023-11-21T15:16:31;3.40;;;3.10;;
5452;SDS011;2749;53.576;9.822;2023-11-21T15:18:57;4.77;;;3.13;;
5452;SDS011;2749;53.576;9.822;2023-11-21T15:21:23;12.47;;;6.20;;